Airfield :
LOGIN :

Register | Disclaimer

   EN    FR    IT 

 










Legend :    VFR   Marginal VFR   IFR   Intensive IFR   Very Intensive IFR
Visi :
Ceiling :
>= 8 km
>= 3000ft
5 to 8 km
1000 to 3000 ft
1500m to 5 km
500 to 1000 ft
800 to 1500m
200 to 500 ft
< 800m
< 200 ft
Symbols :   Thunderstorms  Fog  Heavy snow  Heavy precipitations  Wind > 20 kt
SIGMETs :     Misc.  Thunderstorms  Icing  Turbulence  Mountain Waves  Volcanic Ashes






- Airport Elevation : 3 ft
- IATA code : LWR


EHLW - Leuuwarden Air Base

CURRENT METAR :
  • 050355Z AUTO 19006KT 160V220 9999 SCT083 OVC290 14/12 Q1013 BLU

EXPIRED METARs :
  • 050325Z AUTO 18006KT 150V220 9999 BKN082 OVC280 15/11 Q1013 BLU
  • 050255Z AUTO 18008KT 140V210 9999 OVC260 15/11 Q1012 BLU
  • 050225Z AUTO 18007KT 150V220 9999 OVC270 15/10 Q1013 BLU
  • 050155Z AUTO 18008KT 150V230 9999 OVC280 15/10 Q1013 BLU
  • 050125Z AUTO 18009KT 150V210 9999 OVC300 15/10 Q1013 BLU
  • 050055Z AUTO 18008KT 140V200 9999 OVC310 16/10 Q1013 BLU

TAF TAF EHLW
Valid from the 05 at 01:00 until the 05 at 13:00 UTC


050014Z 0501/0513 17009KT CAVOK
BECMG 0506/0508 21012G24KT



MET'MAP, your aeronautical weather chart ! - Copyright ORBIFLY December 2007 - Disclaimer

ORBIFLY MET'MAP TEAM :

Programming & Development : Alexandra Zaïnal
Concept & original design : Baudouin d'Aumeries
Assistance for programming : Marc-Olivier Méhu
Technical & hardware support : Manuel Goepfert

Contact : metmap@orbifly.com




SOURCES & CREDITS :

   NOAA